Roosevelt, Utah
Current Conditions -  °F | °C
As of 6:53 AM on Friday 28 Nov 2014 (Local Time) from KVEL Reporting Station
Clear Clear  
Wind Chill: 22°   Ceiling: Unl
Heat Index: 27°   Visibility: 10mi
Dew Point: 19°   Wind: 5mph
Humidity: 72%   Direction: 280°W
Pressure: 30.15"   Gusts: NA
Location:  40.3°N, 109.99°W
Report Text: KVEL 281353Z AUTO 28004KT 10SM CLR M03/M07 A3015 RMK AO2 SLP228 T10281072
Loading
Personal Weather Stations






























Interactive Weather Map New forecast layout! Learn more

10-Day Weather Forecast

Advertisements
Track Severe Weather on mobile